sensor_id;sensor_type;location;lat;lon;timestamp;P1;durP1;ratioP1;P2;durP2;ratioP2
32365;SDS011;18837;46.832;16.838;2022-07-26T00:10:21;5.47;;;5.03;;
32365;SDS011;18837;46.832;16.838;2022-07-26T00:12:47;5.30;;;4.90;;
32365;SDS011;18837;46.832;16.838;2022-07-26T00:15:13;5.93;;;5.43;;
32365;SDS011;18837;46.832;16.838;2022-07-26T00:17:38;6.10;;;5.70;;
32365;SDS011;18837;46.832;16.838;2022-07-26T00:20:05;5.90;;;5.40;;
32365;SDS011;18837;46.832;16.838;2022-07-26T00:22:31;5.50;;;5.10;;
32365;SDS011;18837;46.832;16.838;2022-07-26T00:25:06;5.50;;;5.10;;
32365;SDS011;18837;46.832;16.838;2022-07-26T01:24:17;5.30;;;4.90;;
32365;SDS011;18837;46.832;16.838;2022-07-26T01:26:42;5.57;;;5.17;;
32365;SDS011;18837;46.832;16.838;2022-07-26T01:29:09;5.23;;;4.83;;
32365;SDS011;18837;46.832;16.838;2022-07-26T01:31:34;5.60;;;5.10;;
32365;SDS011;18837;46.832;16.838;2022-07-26T01:34:10;5.67;;;5.17;;
32365;SDS011;18837;46.832;16.838;2022-07-26T02:34:02;5.70;;;5.20;;
32365;SDS011;18837;46.832;16.838;2022-07-26T02:36:27;5.63;;;5.03;;
32365;SDS011;18837;46.832;16.838;2022-07-26T02:38:53;5.73;;;5.23;;
32365;SDS011;18837;46.832;16.838;2022-07-26T02:41:19;5.70;;;5.30;;
32365;SDS011;18837;46.832;16.838;2022-07-26T02:49:22;5.97;;;5.47;;
32365;SDS011;18837;46.832;16.838;2022-07-26T02:51:47;8.20;;;5.73;;
32365;SDS011;18837;46.832;16.838;2022-07-26T02:54:13;5.73;;;5.30;;
32365;SDS011;18837;46.832;16.838;2022-07-26T02:56:39;5.73;;;5.33;;
32365;SDS011;18837;46.832;16.838;2022-07-26T02:59:05;5.83;;;5.33;;
32365;SDS011;18837;46.832;16.838;2022-07-26T03:01:32;5.53;;;5.13;;
32365;SDS011;18837;46.832;16.838;2022-07-26T03:04:12;5.77;;;5.27;;
32365;SDS011;18837;46.832;16.838;2022-07-26T03:06:38;5.80;;;5.30;;
32365;SDS011;18837;46.832;16.838;2022-07-26T03:09:04;5.77;;;5.27;;
32365;SDS011;18837;46.832;16.838;2022-07-26T03:11:30;5.80;;;5.10;;
32365;SDS011;18837;46.832;16.838;2022-07-26T03:13:56;6.30;;;5.70;;
32365;SDS011;18837;46.832;16.838;2022-07-26T03:16:21;5.77;;;5.30;;
32365;SDS011;18837;46.832;16.838;2022-07-26T03:24:27;5.60;;;5.17;;
32365;SDS011;18837;46.832;16.838;2022-07-26T03:26:53;5.33;;;4.93;;
32365;SDS011;18837;46.832;16.838;2022-07-26T03:29:19;5.70;;;5.23;;
32365;SDS011;18837;46.832;16.838;2022-07-26T03:31:45;5.90;;;5.40;;
32365;SDS011;18837;46.832;16.838;2022-07-26T03:34:10;6.20;;;5.67;;
32365;SDS011;18837;46.832;16.838;2022-07-26T03:36:50;5.77;;;4.90;;
32365;SDS011;18837;46.832;16.838;2022-07-26T03:39:16;5.80;;;5.33;;
32365;SDS011;18837;46.832;16.838;2022-07-26T03:41:41;5.80;;;5.30;;
32365;SDS011;18837;46.832;16.838;2022-07-26T03:44:07;5.90;;;5.40;;
32365;SDS011;18837;46.832;16.838;2022-07-26T03:46:33;6.23;;;5.70;;
32365;SDS011;18837;46.832;16.838;2022-07-26T03:48:58;5.70;;;5.30;;
32365;SDS011;18837;46.832;16.838;2022-07-26T03:51:24;5.63;;;5.13;;
32365;SDS011;18837;46.832;16.838;2022-07-26T03:54:02;5.50;;;5.10;;
32365;SDS011;18837;46.832;16.838;2022-07-26T03:56:58;6.37;;;5.77;;
32365;SDS011;18837;46.832;16.838;2022-07-26T03:59:23;5.97;;;5.40;;
32365;SDS011;18837;46.832;16.838;2022-07-26T04:01:49;5.67;;;5.17;;
32365;SDS011;18837;46.832;16.838;2022-07-26T04:04:16;5.70;;;5.20;;
32365;SDS011;18837;46.832;16.838;2022-07-26T04:06:43;6.40;;;5.00;;
32365;SDS011;18837;46.832;16.838;2022-07-26T04:09:09;6.20;;;5.60;;
32365;SDS011;18837;46.832;16.838;2022-07-26T04:11:35;6.27;;;5.67;;
32365;SDS011;18837;46.832;16.838;2022-07-26T04:14:01;5.70;;;5.20;;
32365;SDS011;18837;46.832;16.838;2022-07-26T04:16:28;5.10;;;4.70;;
32365;SDS011;18837;46.832;16.838;2022-07-26T04:18:53;5.83;;;5.33;;
32365;SDS011;18837;46.832;16.838;2022-07-26T04:21:19;6.07;;;5.50;;
32365;SDS011;18837;46.832;16.838;2022-07-26T04:23:45;5.73;;;5.27;;
32365;SDS011;18837;46.832;16.838;2022-07-26T04:26:11;5.97;;;5.40;;
32365;SDS011;18837;46.832;16.838;2022-07-26T04:28:38;6.10;;;5.50;;
32365;SDS011;18837;46.832;16.838;2022-07-26T04:31:04;5.97;;;5.37;;
32365;SDS011;18837;46.832;16.838;2022-07-26T04:33:30;6.00;;;5.50;;
32365;SDS011;18837;46.832;16.838;2022-07-26T04:35:57;5.83;;;5.33;;
32365;SDS011;18837;46.832;16.838;2022-07-26T04:38:24;5.97;;;5.50;;
32365;SDS011;18837;46.832;16.838;2022-07-26T04:40:50;6.10;;;5.57;;
32365;SDS011;18837;46.832;16.838;2022-07-26T04:43:17;6.20;;;5.63;;
32365;SDS011;18837;46.832;16.838;2022-07-26T04:45:46;6.03;;;5.53;;
32365;SDS011;18837;46.832;16.838;2022-07-26T04:48:13;6.57;;;5.87;;
32365;SDS011;18837;46.832;16.838;2022-07-26T04:50:39;6.50;;;5.90;;
32365;SDS011;18837;46.832;16.838;2022-07-26T04:53:05;6.30;;;5.80;;
32365;SDS011;18837;46.832;16.838;2022-07-26T04:55:31;5.83;;;5.43;;
32365;SDS011;18837;46.832;16.838;2022-07-26T04:57:56;6.17;;;5.60;;
32365;SDS011;18837;46.832;16.838;2022-07-26T05:00:23;5.80;;;5.30;;
32365;SDS011;18837;46.832;16.838;2022-07-26T05:02:50;6.47;;;5.97;;
32365;SDS011;18837;46.832;16.838;2022-07-26T05:05:17;5.93;;;5.43;;
32365;SDS011;18837;46.832;16.838;2022-07-26T05:07:53;6.10;;;5.60;;
32365;SDS011;18837;46.832;16.838;2022-07-26T05:10:20;6.43;;;5.93;;
32365;SDS011;18837;46.832;16.838;2022-07-26T05:12:51;6.60;;;6.00;;
32365;SDS011;18837;46.832;16.838;2022-07-26T05:15:17;6.50;;;5.90;;
32365;SDS011;18837;46.832;16.838;2022-07-26T05:17:43;6.60;;;6.10;;
32365;SDS011;18837;46.832;16.838;2022-07-26T05:20:09;6.77;;;6.17;;
32365;SDS011;18837;46.832;16.838;2022-07-26T05:22:37;6.47;;;5.87;;
32365;SDS011;18837;46.832;16.838;2022-07-26T05:25:04;6.17;;;5.57;;
32365;SDS011;18837;46.832;16.838;2022-07-26T05:27:35;5.80;;;5.30;;
32365;SDS011;18837;46.832;16.838;2022-07-26T05:30:03;6.50;;;5.90;;
32365;SDS011;18837;46.832;16.838;2022-07-26T05:32:29;7.07;;;5.73;;
32365;SDS011;18837;46.832;16.838;2022-07-26T05:34:54;6.80;;;6.27;;
32365;SDS011;18837;46.832;16.838;2022-07-26T05:37:20;6.63;;;5.97;;
32365;SDS011;18837;46.832;16.838;2022-07-26T05:39:46;6.47;;;5.87;;
32365;SDS011;18837;46.832;16.838;2022-07-26T05:42:30;7.77;;;5.40;;
32365;SDS011;18837;46.832;16.838;2022-07-26T05:47:42;6.13;;;5.63;;
32365;SDS011;18837;46.832;16.838;2022-07-26T05:50:07;6.43;;;5.40;;
32365;SDS011;18837;46.832;16.838;2022-07-26T05:52:33;6.70;;;6.00;;
32365;SDS011;18837;46.832;16.838;2022-07-26T05:54:59;6.50;;;5.90;;
32365;SDS011;18837;46.832;16.838;2022-07-26T05:57:25;6.27;;;5.67;;
32365;SDS011;18837;46.832;16.838;2022-07-26T05:59:50;6.60;;;6.00;;
32365;SDS011;18837;46.832;16.838;2022-07-26T06:02:21;6.60;;;6.00;;
32365;SDS011;18837;46.832;16.838;2022-07-26T06:04:47;6.40;;;5.80;;
32365;SDS011;18837;46.832;16.838;2022-07-26T06:07:13;6.37;;;5.80;;
32365;SDS011;18837;46.832;16.838;2022-07-26T06:09:39;5.93;;;5.43;;
32365;SDS011;18837;46.832;16.838;2022-07-26T06:12:05;6.50;;;5.87;;
32365;SDS011;18837;46.832;16.838;2022-07-26T06:14:31;6.13;;;5.63;;
32365;SDS011;18837;46.832;16.838;2022-07-26T06:22:34;5.13;;;4.73;;
32365;SDS011;18837;46.832;16.838;2022-07-26T06:25:00;5.10;;;4.70;;
32365;SDS011;18837;46.832;16.838;2022-07-26T06:27:26;6.10;;;4.80;;
32365;SDS011;18837;46.832;16.838;2022-07-26T06:29:52;5.00;;;4.23;;
32365;SDS011;18837;46.832;16.838;2022-07-26T06:32:18;5.53;;;4.93;;
32365;SDS011;18837;46.832;16.838;2022-07-26T06:34:44;5.03;;;4.63;;
32365;SDS011;18837;46.832;16.838;2022-07-26T06:37:16;6.70;;;4.70;;
32365;SDS011;18837;46.832;16.838;2022-07-26T06:39:41;5.47;;;4.63;;
32365;SDS011;18837;46.832;16.838;2022-07-26T06:42:07;4.87;;;4.47;;
32365;SDS011;18837;46.832;16.838;2022-07-26T06:44:33;5.00;;;4.60;;
32365;SDS011;18837;46.832;16.838;2022-07-26T06:46:58;4.70;;;4.27;;
32365;SDS011;18837;46.832;16.838;2022-07-26T06:49:24;4.60;;;4.20;;
32365;SDS011;18837;46.832;16.838;2022-07-26T06:54:52;4.20;;;3.90;;
32365;SDS011;18837;46.832;16.838;2022-07-26T06:57:17;5.47;;;3.40;;
32365;SDS011;18837;46.832;16.838;2022-07-26T06:59:43;4.97;;;3.60;;
32365;SDS011;18837;46.832;16.838;2022-07-26T07:02:09;4.93;;;3.50;;
32365;SDS011;18837;46.832;16.838;2022-07-26T07:04:34;4.37;;;3.93;;
32365;SDS011;18837;46.832;16.838;2022-07-26T07:07:00;3.73;;;3.33;;
32365;SDS011;18837;46.832;16.838;2022-07-26T07:09:27;4.00;;;3.60;;
32365;SDS011;18837;46.832;16.838;2022-07-26T07:11:58;3.60;;;3.30;;
32365;SDS011;18837;46.832;16.838;2022-07-26T07:14:25;3.53;;;3.23;;
32365;SDS011;18837;46.832;16.838;2022-07-26T07:16:51;3.60;;;3.30;;
32365;SDS011;18837;46.832;16.838;2022-07-26T07:19:17;3.50;;;3.20;;
32365;SDS011;18837;46.832;16.838;2022-07-26T07:21:43;3.47;;;3.17;;
32365;SDS011;18837;46.832;16.838;2022-07-26T07:24:09;3.40;;;3.10;;
32365;SDS011;18837;46.832;16.838;2022-07-26T07:32:12;2.80;;;2.60;;
32365;SDS011;18837;46.832;16.838;2022-07-26T07:34:38;2.83;;;2.63;;
32365;SDS011;18837;46.832;16.838;2022-07-26T07:37:04;3.67;;;2.90;;
32365;SDS011;18837;46.832;16.838;2022-07-26T07:39:30;3.03;;;2.73;;
32365;SDS011;18837;46.832;16.838;2022-07-26T07:41:56;2.93;;;2.30;;
32365;SDS011;18837;46.832;16.838;2022-07-26T07:44:21;3.73;;;3.03;;
32365;SDS011;18837;46.832;16.838;2022-07-26T07:46:47;2.63;;;2.43;;
32365;SDS011;18837;46.832;16.838;2022-07-26T07:49:13;2.50;;;2.30;;
32365;SDS011;18837;46.832;16.838;2022-07-26T07:51:39;2.60;;;2.40;;
32365;SDS011;18837;46.832;16.838;2022-07-26T07:54:05;2.90;;;2.60;;
32365;SDS011;18837;46.832;16.838;2022-07-26T07:56:31;2.63;;;2.43;;
32365;SDS011;18837;46.832;16.838;2022-07-26T07:58:58;2.43;;;2.23;;
32365;SDS011;18837;46.832;16.838;2022-07-26T08:01:26;2.57;;;2.20;;
32365;SDS011;18837;46.832;16.838;2022-07-26T08:03:52;3.30;;;2.40;;
32365;SDS011;18837;46.832;16.838;2022-07-26T08:06:18;3.23;;;2.63;;
32365;SDS011;18837;46.832;16.838;2022-07-26T08:08:43;2.50;;;2.30;;
32365;SDS011;18837;46.832;16.838;2022-07-26T08:11:09;2.57;;;2.37;;
32365;SDS011;18837;46.832;16.838;2022-07-26T08:13:35;2.37;;;2.13;;
32365;SDS011;18837;46.832;16.838;2022-07-26T08:19:06;2.10;;;2.00;;
32365;SDS011;18837;46.832;16.838;2022-07-26T08:58:28;2.43;;;2.20;;
32365;SDS011;18837;46.832;16.838;2022-07-26T09:01:02;4.90;;;2.47;;
32365;SDS011;18837;46.832;16.838;2022-07-26T09:03:37;2.20;;;2.00;;
32365;SDS011;18837;46.832;16.838;2022-07-26T09:11:49;2.50;;;2.13;;
32365;SDS011;18837;46.832;16.838;2022-07-26T09:14:14;2.40;;;2.20;;
32365;SDS011;18837;46.832;16.838;2022-07-26T09:16:40;2.50;;;2.20;;
32365;SDS011;18837;46.832;16.838;2022-07-26T09:19:20;2.47;;;2.27;;
32365;SDS011;18837;46.832;16.838;2022-07-26T09:21:47;2.40;;;2.10;;
32365;SDS011;18837;46.832;16.838;2022-07-26T09:53:43;2.67;;;2.40;;
32365;SDS011;18837;46.832;16.838;2022-07-26T09:56:10;2.80;;;2.57;;
32365;SDS011;18837;46.832;16.838;2022-07-26T10:05:02;2.40;;;2.20;;
32365;SDS011;18837;46.832;16.838;2022-07-26T10:07:27;2.60;;;2.40;;
32365;SDS011;18837;46.832;16.838;2022-07-26T10:09:56;2.60;;;2.40;;
32365;SDS011;18837;46.832;16.838;2022-07-26T10:12:35;1.97;;;1.87;;
32365;SDS011;18837;46.832;16.838;2022-07-26T10:15:01;2.70;;;2.50;;
32365;SDS011;18837;46.832;16.838;2022-07-26T10:20:36;2.60;;;2.40;;
32365;SDS011;18837;46.832;16.838;2022-07-26T10:26:05;2.60;;;2.40;;
32365;SDS011;18837;46.832;16.838;2022-07-26T10:28:36;3.17;;;2.30;;
32365;SDS011;18837;46.832;16.838;2022-07-26T10:31:21;3.20;;;2.73;;
32365;SDS011;18837;46.832;16.838;2022-07-26T10:40:14;2.47;;;2.27;;
32365;SDS011;18837;46.832;16.838;2022-07-26T10:42:43;2.53;;;2.33;;
32365;SDS011;18837;46.832;16.838;2022-07-26T10:45:16;2.50;;;2.30;;
32365;SDS011;18837;46.832;16.838;2022-07-26T10:50:38;2.77;;;2.57;;
32365;SDS011;18837;46.832;16.838;2022-07-26T10:53:24;2.23;;;2.03;;
32365;SDS011;18837;46.832;16.838;2022-07-26T10:55:52;2.50;;;2.30;;
32365;SDS011;18837;46.832;16.838;2022-07-26T10:58:23;2.30;;;2.10;;
32365;SDS011;18837;46.832;16.838;2022-07-26T11:01:00;2.93;;;2.50;;
32365;SDS011;18837;46.832;16.838;2022-07-26T11:03:40;2.63;;;2.30;;
32365;SDS011;18837;46.832;16.838;2022-07-26T11:06:08;2.93;;;2.27;;
32365;SDS011;18837;46.832;16.838;2022-07-26T11:14:49;2.53;;;2.33;;
32365;SDS011;18837;46.832;16.838;2022-07-26T11:17:48;1.70;;;1.60;;
32365;SDS011;18837;46.832;16.838;2022-07-26T11:20:07;2.10;;;1.90;;
32365;SDS011;18837;46.832;16.838;2022-07-26T11:22:34;2.20;;;2.00;;
32365;SDS011;18837;46.832;16.838;2022-07-26T11:25:00;3.40;;;2.30;;
32365;SDS011;18837;46.832;16.838;2022-07-26T11:27:31;1.90;;;1.80;;
32365;SDS011;18837;46.832;16.838;2022-07-26T11:30:02;2.60;;;2.40;;
32365;SDS011;18837;46.832;16.838;2022-07-26T11:32:28;2.33;;;2.10;;
32365;SDS011;18837;46.832;16.838;2022-07-26T11:34:58;3.10;;;2.20;;
32365;SDS011;18837;46.832;16.838;2022-07-26T11:37:27;2.50;;;2.00;;
32365;SDS011;18837;46.832;16.838;2022-07-26T11:39:53;2.70;;;2.50;;
32365;SDS011;18837;46.832;16.838;2022-07-26T11:42:30;2.70;;;2.50;;
32365;SDS011;18837;46.832;16.838;2022-07-26T11:47:49;3.33;;;2.63;;
32365;SDS011;18837;46.832;16.838;2022-07-26T11:50:21;2.73;;;2.30;;
32365;SDS011;18837;46.832;16.838;2022-07-26T11:52:47;2.70;;;2.47;;
32365;SDS011;18837;46.832;16.838;2022-07-26T11:55:12;3.20;;;2.60;;
32365;SDS011;18837;46.832;16.838;2022-07-26T11:57:38;2.67;;;2.47;;
32365;SDS011;18837;46.832;16.838;2022-07-26T12:00:04;3.03;;;2.80;;
32365;SDS011;18837;46.832;16.838;2022-07-26T12:02:35;3.20;;;2.90;;
32365;SDS011;18837;46.832;16.838;2022-07-26T12:05:11;3.10;;;2.67;;
32365;SDS011;18837;46.832;16.838;2022-07-26T12:07:51;2.90;;;2.67;;
32365;SDS011;18837;46.832;16.838;2022-07-26T12:10:17;2.63;;;2.43;;
32365;SDS011;18837;46.832;16.838;2022-07-26T12:12:43;3.30;;;3.00;;
32365;SDS011;18837;46.832;16.838;2022-07-26T12:15:09;2.60;;;2.40;;
32365;SDS011;18837;46.832;16.838;2022-07-26T12:21:10;3.10;;;2.80;;
32365;SDS011;18837;46.832;16.838;2022-07-26T12:23:46;3.40;;;2.40;;
32365;SDS011;18837;46.832;16.838;2022-07-26T12:28:48;3.83;;;3.07;;
32365;SDS011;18837;46.832;16.838;2022-07-26T12:31:24;2.80;;;2.60;;
32365;SDS011;18837;46.832;16.838;2022-07-26T12:33:54;3.07;;;2.77;;
32365;SDS011;18837;46.832;16.838;2022-07-26T12:36:25;3.20;;;2.67;;
32365;SDS011;18837;46.832;16.838;2022-07-26T12:38:51;2.87;;;2.67;;
32365;SDS011;18837;46.832;16.838;2022-07-26T12:41:30;3.00;;;2.80;;
32365;SDS011;18837;46.832;16.838;2022-07-26T12:43:57;2.97;;;2.67;;
32365;SDS011;18837;46.832;16.838;2022-07-26T12:46:23;2.80;;;2.60;;
32365;SDS011;18837;46.832;16.838;2022-07-26T12:48:49;2.57;;;2.37;;
32365;SDS011;18837;46.832;16.838;2022-07-26T12:51:15;4.17;;;2.83;;
32365;SDS011;18837;46.832;16.838;2022-07-26T12:53:46;3.13;;;2.93;;
32365;SDS011;18837;46.832;16.838;2022-07-26T12:56:27;3.00;;;2.80;;
32365;SDS011;18837;46.832;16.838;2022-07-26T12:58:53;3.37;;;2.90;;
32365;SDS011;18837;46.832;16.838;2022-07-26T13:01:24;3.20;;;2.90;;
32365;SDS011;18837;46.832;16.838;2022-07-26T13:03:53;3.30;;;3.00;;
32365;SDS011;18837;46.832;16.838;2022-07-26T13:06:19;2.90;;;2.70;;
32365;SDS011;18837;46.832;16.838;2022-07-26T13:08:45;3.63;;;2.87;;
32365;SDS011;18837;46.832;16.838;2022-07-26T13:11:16;3.00;;;2.80;;
32365;SDS011;18837;46.832;16.838;2022-07-26T13:13:42;3.10;;;2.90;;
32365;SDS011;18837;46.832;16.838;2022-07-26T13:16:08;3.10;;;2.87;;
32365;SDS011;18837;46.832;16.838;2022-07-26T13:18:34;3.33;;;2.70;;
32365;SDS011;18837;46.832;16.838;2022-07-26T13:21:02;3.13;;;2.83;;
32365;SDS011;18837;46.832;16.838;2022-07-26T13:23:27;3.17;;;2.97;;
32365;SDS011;18837;46.832;16.838;2022-07-26T13:25:53;3.20;;;2.90;;
32365;SDS011;18837;46.832;16.838;2022-07-26T15:06:26;3.07;;;2.87;;
32365;SDS011;18837;46.832;16.838;2022-07-26T15:08:52;2.93;;;2.73;;
32365;SDS011;18837;46.832;16.838;2022-07-26T15:11:18;3.00;;;2.70;;
32365;SDS011;18837;46.832;16.838;2022-07-26T15:13:44;2.90;;;2.70;;
32365;SDS011;18837;46.832;16.838;2022-07-26T15:16:09;3.20;;;2.90;;
32365;SDS011;18837;46.832;16.838;2022-07-26T15:18:35;3.13;;;2.80;;
32365;SDS011;18837;46.832;16.838;2022-07-26T15:23:51;4.43;;;3.00;;
32365;SDS011;18837;46.832;16.838;2022-07-26T15:26:17;3.20;;;2.90;;
32365;SDS011;18837;46.832;16.838;2022-07-26T15:28:43;3.10;;;2.90;;
32365;SDS011;18837;46.832;16.838;2022-07-26T15:31:09;3.23;;;2.93;;
32365;SDS011;18837;46.832;16.838;2022-07-26T15:33:35;3.23;;;2.90;;
32365;SDS011;18837;46.832;16.838;2022-07-26T15:36:10;3.17;;;2.87;;
32365;SDS011;18837;46.832;16.838;2022-07-26T15:38:37;3.43;;;3.13;;
32365;SDS011;18837;46.832;16.838;2022-07-26T15:41:18;4.43;;;3.30;;
32365;SDS011;18837;46.832;16.838;2022-07-26T15:43:44;2.90;;;2.70;;
32365;SDS011;18837;46.832;16.838;2022-07-26T15:46:12;3.03;;;2.83;;
32365;SDS011;18837;46.832;16.838;2022-07-26T15:48:38;2.90;;;2.70;;
32365;SDS011;18837;46.832;16.838;2022-07-26T15:51:03;3.30;;;3.00;;
32365;SDS011;18837;46.832;16.838;2022-07-26T15:53:30;3.10;;;2.90;;
32365;SDS011;18837;46.832;16.838;2022-07-26T15:56:01;3.43;;;3.13;;
32365;SDS011;18837;46.832;16.838;2022-07-26T15:58:27;3.47;;;3.10;;
32365;SDS011;18837;46.832;16.838;2022-07-26T16:00:54;3.77;;;3.33;;
32365;SDS011;18837;46.832;16.838;2022-07-26T16:03:20;4.20;;;3.53;;
32365;SDS011;18837;46.832;16.838;2022-07-26T16:05:45;3.73;;;3.43;;
32365;SDS011;18837;46.832;16.838;2022-07-26T16:08:11;3.40;;;3.10;;
32365;SDS011;18837;46.832;16.838;2022-07-26T16:16:22;3.30;;;3.00;;
32365;SDS011;18837;46.832;16.838;2022-07-26T16:18:48;3.03;;;2.80;;
32365;SDS011;18837;46.832;16.838;2022-07-26T16:21:13;9.27;;;3.33;;
32365;SDS011;18837;46.832;16.838;2022-07-26T16:23:39;6.00;;;2.87;;
32365;SDS011;18837;46.832;16.838;2022-07-26T16:26:05;4.27;;;2.57;;
32365;SDS011;18837;46.832;16.838;2022-07-26T16:28:35;3.27;;;2.60;;
32365;SDS011;18837;46.832;16.838;2022-07-26T16:31:03;6.83;;;2.93;;
32365;SDS011;18837;46.832;16.838;2022-07-26T16:33:28;3.23;;;2.50;;
32365;SDS011;18837;46.832;16.838;2022-07-26T16:35:54;6.10;;;2.40;;
32365;SDS011;18837;46.832;16.838;2022-07-26T16:38:20;2.50;;;2.30;;
32365;SDS011;18837;46.832;16.838;2022-07-26T16:40:46;3.90;;;2.20;;
32365;SDS011;18837;46.832;16.838;2022-07-26T16:43:12;5.23;;;3.17;;
32365;SDS011;18837;46.832;16.838;2022-07-26T16:45:37;4.13;;;2.27;;
32365;SDS011;18837;46.832;16.838;2022-07-26T16:48:03;12.23;;;3.80;;
32365;SDS011;18837;46.832;16.838;2022-07-26T16:50:29;17.23;;;5.67;;
32365;SDS011;18837;46.832;16.838;2022-07-26T16:52:55;9.97;;;3.27;;
32365;SDS011;18837;46.832;16.838;2022-07-26T16:55:21;8.50;;;2.47;;
32365;SDS011;18837;46.832;16.838;2022-07-26T16:57:47;3.90;;;2.20;;
32365;SDS011;18837;46.832;16.838;2022-07-26T17:00:13;17.23;;;2.50;;
32365;SDS011;18837;46.832;16.838;2022-07-26T17:02:41;15.30;;;2.47;;
32365;SDS011;18837;46.832;16.838;2022-07-26T17:05:07;6.03;;;2.20;;
32365;SDS011;18837;46.832;16.838;2022-07-26T17:07:34;9.73;;;2.30;;
32365;SDS011;18837;46.832;16.838;2022-07-26T17:10:03;4.30;;;2.30;;
32365;SDS011;18837;46.832;16.838;2022-07-26T17:12:30;10.53;;;2.63;;
32365;SDS011;18837;46.832;16.838;2022-07-26T17:14:57;10.60;;;3.90;;
32365;SDS011;18837;46.832;16.838;2022-07-26T17:17:23;5.13;;;2.80;;
32365;SDS011;18837;46.832;16.838;2022-07-26T17:19:49;5.03;;;2.57;;
32365;SDS011;18837;46.832;16.838;2022-07-26T17:22:15;4.43;;;2.10;;
32365;SDS011;18837;46.832;16.838;2022-07-26T17:24:41;3.77;;;2.13;;
32365;SDS011;18837;46.832;16.838;2022-07-26T17:27:07;2.90;;;2.70;;
32365;SDS011;18837;46.832;16.838;2022-07-26T17:29:32;4.07;;;2.17;;
32365;SDS011;18837;46.832;16.838;2022-07-26T17:31:58;5.67;;;1.90;;
32365;SDS011;18837;46.832;16.838;2022-07-26T17:34:23;5.87;;;2.00;;
32365;SDS011;18837;46.832;16.838;2022-07-26T17:36:56;17.60;;;3.43;;
32365;SDS011;18837;46.832;16.838;2022-07-26T17:39:23;12.43;;;2.70;;
32365;SDS011;18837;46.832;16.838;2022-07-26T17:41:49;17.20;;;2.57;;
32365;SDS011;18837;46.832;16.838;2022-07-26T17:44:15;5.57;;;1.80;;
32365;SDS011;18837;46.832;16.838;2022-07-26T17:46:41;6.77;;;2.10;;
32365;SDS011;18837;46.832;16.838;2022-07-26T17:49:07;5.27;;;1.90;;
32365;SDS011;18837;46.832;16.838;2022-07-26T17:51:33;6.33;;;1.77;;
32365;SDS011;18837;46.832;16.838;2022-07-26T17:53:58;4.00;;;1.80;;
32365;SDS011;18837;46.832;16.838;2022-07-26T17:56:24;3.83;;;1.73;;
32365;SDS011;18837;46.832;16.838;2022-07-26T17:58:50;2.97;;;1.60;;
32365;SDS011;18837;46.832;16.838;2022-07-26T18:01:15;7.37;;;2.10;;
32365;SDS011;18837;46.832;16.838;2022-07-26T18:03:41;3.20;;;1.90;;
32365;SDS011;18837;46.832;16.838;2022-07-26T18:06:07;3.83;;;1.80;;
32365;SDS011;18837;46.832;16.838;2022-07-26T18:08:33;6.77;;;2.30;;
32365;SDS011;18837;46.832;16.838;2022-07-26T18:10:58;3.87;;;1.70;;
32365;SDS011;18837;46.832;16.838;2022-07-26T18:13:27;7.43;;;1.90;;
32365;SDS011;18837;46.832;16.838;2022-07-26T18:15:54;5.87;;;2.00;;
32365;SDS011;18837;46.832;16.838;2022-07-26T18:18:19;6.77;;;1.93;;
32365;SDS011;18837;46.832;16.838;2022-07-26T18:20:45;32.50;;;4.00;;
32365;SDS011;18837;46.832;16.838;2022-07-26T18:23:11;7.17;;;2.73;;
32365;SDS011;18837;46.832;16.838;2022-07-26T18:25:37;5.57;;;2.60;;
32365;SDS011;18837;46.832;16.838;2022-07-26T18:28:04;7.40;;;3.03;;
32365;SDS011;18837;46.832;16.838;2022-07-26T18:30:30;3.57;;;2.60;;
32365;SDS011;18837;46.832;16.838;2022-07-26T18:33:00;28.00;;;4.00;;
32365;SDS011;18837;46.832;16.838;2022-07-26T18:35:38;11.77;;;3.03;;
32365;SDS011;18837;46.832;16.838;2022-07-26T18:38:04;13.57;;;3.50;;
32365;SDS011;18837;46.832;16.838;2022-07-26T18:40:30;9.53;;;3.07;;
32365;SDS011;18837;46.832;16.838;2022-07-26T18:42:56;11.73;;;3.60;;
32365;SDS011;18837;46.832;16.838;2022-07-26T18:45:22;11.77;;;3.60;;
32365;SDS011;18837;46.832;16.838;2022-07-26T18:50:16;9.73;;;2.97;;
32365;SDS011;18837;46.832;16.838;2022-07-26T18:52:43;13.00;;;3.57;;
32365;SDS011;18837;46.832;16.838;2022-07-26T18:55:10;9.40;;;3.20;;
32365;SDS011;18837;46.832;16.838;2022-07-26T18:57:37;11.80;;;3.60;;
32365;SDS011;18837;46.832;16.838;2022-07-26T19:00:22;7.40;;;3.00;;
32365;SDS011;18837;46.832;16.838;2022-07-26T19:02:49;9.17;;;3.47;;
32365;SDS011;18837;46.832;16.838;2022-07-26T19:05:19;10.00;;;3.23;;
32365;SDS011;18837;46.832;16.838;2022-07-26T19:07:49;5.83;;;3.53;;
32365;SDS011;18837;46.832;16.838;2022-07-26T19:10:15;6.73;;;3.37;;
32365;SDS011;18837;46.832;16.838;2022-07-26T19:12:41;6.03;;;2.83;;
32365;SDS011;18837;46.832;16.838;2022-07-26T19:15:12;6.60;;;2.73;;
32365;SDS011;18837;46.832;16.838;2022-07-26T19:17:38;7.63;;;3.43;;
32365;SDS011;18837;46.832;16.838;2022-07-26T19:20:04;7.20;;;3.00;;
32365;SDS011;18837;46.832;16.838;2022-07-26T19:22:34;7.20;;;3.47;;
32365;SDS011;18837;46.832;16.838;2022-07-26T19:25:00;7.60;;;3.27;;
32365;SDS011;18837;46.832;16.838;2022-07-26T19:27:27;7.50;;;2.80;;
32365;SDS011;18837;46.832;16.838;2022-07-26T19:29:53;5.00;;;2.87;;
32365;SDS011;18837;46.832;16.838;2022-07-26T19:32:21;7.40;;;3.70;;
32365;SDS011;18837;46.832;16.838;2022-07-26T19:34:47;5.10;;;3.33;;
32365;SDS011;18837;46.832;16.838;2022-07-26T19:37:13;4.07;;;2.80;;
32365;SDS011;18837;46.832;16.838;2022-07-26T19:39:45;4.63;;;3.10;;
32365;SDS011;18837;46.832;16.838;2022-07-26T19:42:16;4.90;;;3.43;;
32365;SDS011;18837;46.832;16.838;2022-07-26T19:44:43;4.93;;;3.33;;
32365;SDS011;18837;46.832;16.838;2022-07-26T19:47:12;8.67;;;3.00;;
32365;SDS011;18837;46.832;16.838;2022-07-26T19:49:38;3.93;;;3.20;;
32365;SDS011;18837;46.832;16.838;2022-07-26T19:52:05;5.13;;;3.00;;
32365;SDS011;18837;46.832;16.838;2022-07-26T19:54:30;2.90;;;2.60;;
32365;SDS011;18837;46.832;16.838;2022-07-26T19:56:59;3.77;;;3.00;;
32365;SDS011;18837;46.832;16.838;2022-07-26T19:59:25;3.53;;;3.23;;
32365;SDS011;18837;46.832;16.838;2022-07-26T20:01:51;4.73;;;2.80;;
32365;SDS011;18837;46.832;16.838;2022-07-26T20:04:19;3.97;;;3.13;;
32365;SDS011;18837;46.832;16.838;2022-07-26T20:06:44;3.77;;;2.90;;
32365;SDS011;18837;46.832;16.838;2022-07-26T20:09:10;3.40;;;3.03;;
32365;SDS011;18837;46.832;16.838;2022-07-26T20:11:36;4.50;;;3.07;;
32365;SDS011;18837;46.832;16.838;2022-07-26T20:14:02;4.17;;;3.07;;
32365;SDS011;18837;46.832;16.838;2022-07-26T20:16:28;3.47;;;3.17;;
32365;SDS011;18837;46.832;16.838;2022-07-26T20:18:56;4.57;;;3.50;;
32365;SDS011;18837;46.832;16.838;2022-07-26T20:21:22;3.83;;;3.17;;
32365;SDS011;18837;46.832;16.838;2022-07-26T20:23:48;4.17;;;3.47;;
32365;SDS011;18837;46.832;16.838;2022-07-26T20:26:14;3.33;;;3.03;;
32365;SDS011;18837;46.832;16.838;2022-07-26T20:28:40;4.10;;;3.13;;
32365;SDS011;18837;46.832;16.838;2022-07-26T20:31:06;3.13;;;2.90;;
32365;SDS011;18837;46.832;16.838;2022-07-26T20:33:32;3.93;;;3.00;;
32365;SDS011;18837;46.832;16.838;2022-07-26T20:35:58;2.77;;;2.57;;
32365;SDS011;18837;46.832;16.838;2022-07-26T20:38:23;2.93;;;2.73;;
32365;SDS011;18837;46.832;16.838;2022-07-26T20:40:49;3.07;;;2.83;;
32365;SDS011;18837;46.832;16.838;2022-07-26T20:43:16;3.50;;;3.20;;
32365;SDS011;18837;46.832;16.838;2022-07-26T20:45:41;4.37;;;3.60;;
32365;SDS011;18837;46.832;16.838;2022-07-26T20:48:07;6.70;;;3.57;;